Station Historical Data
Daily Summary for August 23, 2017 Units:  English    Metric   Both
« Previous Day
Next Day »
Daily Weekly Monthly Yearly Custom
  High: Low: Average:
Temperature: 74.1 °F 58.9 °F 66.1 °F
Dew Point: 59.3 °F 50.2 °F 54.6 °F
Humidity: 82% 52% 67%
Wind Speed: 16.0mph 0.0mph 4.1mph
Wind Gust: 22.0mph - -
Wind- - West
Pressure: 29.93 in 29.78 in -
Precipitation: 0.00 in    
Historical Graphs
 
 
Tabular Data for August 23, 2017
Time Temperature Dew Point Pressure Wind Wind Speed Wind Gust Humidity Rainfall Rate (Hourly)
00:04 63.0 °F 56.0 °F 29.78 in Calm   4.0 mph 78% 0.00 in
00:09 63.0 °F 56.0 °F 29.78 in WSW 1.0 mph 4.0 mph 78% 0.00 in
00:14 62.9 °F 56.3 °F 29.78 in WSW 2.0 mph 4.0 mph 79% 0.00 in
00:19 63.1 °F 56.5 °F 29.79 in WSW 1.0 mph 3.0 mph 79% 0.00 in
00:24 63.1 °F 56.5 °F 29.79 in Calm   5.0 mph 79% 0.00 in
00:29 63.1 °F 56.5 °F 29.79 in Calm   2.0 mph 79% 0.00 in
00:34 62.9 °F 56.3 °F 29.80 in WSW 1.0 mph 4.0 mph 79% 0.00 in
00:39 62.8 °F 56.2 °F 29.80 in WSW 1.0 mph 5.0 mph 79% 0.00 in
00:44 62.6 °F 56.0 °F 29.80 in WSW 2.0 mph 5.0 mph 79% 0.00 in
00:49 62.4 °F 55.8 °F 29.80 in WSW 1.0 mph 3.0 mph 79% 0.00 in
00:54 62.2 °F 56.0 °F 29.80 in West 2.0 mph 4.0 mph 80% 0.00 in
00:59 62.0 °F 55.8 °F 29.80 in West 3.0 mph 3.0 mph 80% 0.00 in
01:04 61.9 °F 55.7 °F 29.80 in WSW 1.0 mph 4.0 mph 80% 0.00 in
01:09 61.8 °F 55.6 °F 29.80 in Calm   3.0 mph 80% 0.00 in
01:14 61.7 °F 55.5 °F 29.80 in West 1.0 mph 4.0 mph 80% 0.00 in
01:19 61.7 °F 55.5 °F 29.80 in Calm   4.0 mph 80% 0.00 in
01:24 61.7 °F 55.5 °F 29.80 in Calm   1.0 mph 80% 0.00 in
01:29 61.4 °F 55.2 °F 29.80 in Calm     80% 0.00 in
01:34 61.2 °F 55.3 °F 29.80 in Calm     81% 0.00 in
01:39 61.0 °F 55.1 °F 29.80 in Calm   3.0 mph 81% 0.00 in
01:44 60.9 °F 55.0 °F 29.80 in Calm   3.0 mph 81% 0.00 in
01:49 60.7 °F 55.2 °F 29.80 in Calm   3.0 mph 82% 0.00 in
01:54 60.7 °F 55.2 °F 29.80 in Calm   5.0 mph 82% 0.00 in
01:59 60.6 °F 55.1 °F 29.80 in Calm     82% 0.00 in
02:04 60.4 °F 54.9 °F 29.80 in Calm     82% 0.00 in
02:09 60.3 °F 54.8 °F 29.81 in Calm     82% 0.00 in
02:14 60.3 °F 54.8 °F 29.81 in Calm   5.0 mph 82% 0.00 in
02:19 60.4 °F 54.9 °F 29.80 in Calm     82% 0.00 in
02:24 60.4 °F 54.9 °F 29.81 in Calm   2.0 mph 82% 0.00 in
02:29 60.4 °F 54.9 °F 29.81 in West 1.0 mph 4.0 mph 82% 0.00 in
02:34 60.4 °F 54.9 °F 29.81 in West 1.0 mph 4.0 mph 82% 0.00 in
02:39 60.5 °F 55.0 °F 29.81 in West 1.0 mph 4.0 mph 82% 0.00 in
02:44 60.6 °F 54.7 °F 29.81 in Calm   4.0 mph 81% 0.00 in
02:49 60.7 °F 54.8 °F 29.81 in Calm   4.0 mph 81% 0.00 in
02:54 60.9 °F 55.0 °F 29.81 in Calm   4.0 mph 81% 0.00 in
02:59 60.8 °F 54.6 °F 29.81 in Calm     80% 0.00 in
03:04 60.7 °F 54.8 °F 29.81 in Calm   4.0 mph 81% 0.00 in
03:09 60.7 °F 54.8 °F 29.81 in Calm   4.0 mph 81% 0.00 in
03:14 60.6 °F 54.7 °F 29.81 in Calm   3.0 mph 81% 0.00 in
03:19 60.5 °F 54.6 °F 29.81 in Calm   3.0 mph 81% 0.00 in
03:24 60.4 °F 54.5 °F 29.80 in Calm     81% 0.00 in
03:29 60.4 °F 54.5 °F 29.81 in Calm   3.0 mph 81% 0.00 in
03:34 60.4 °F 54.5 °F 29.81 in Calm   3.0 mph 81% 0.00 in
03:39 60.3 °F 54.4 °F 29.81 in Calm   1.0 mph 81% 0.00 in
03:44 60.0 °F 54.5 °F 29.81 in Calm     82% 0.00 in
03:49 59.8 °F 54.3 °F 29.81 in Calm   2.0 mph 82% 0.00 in
03:54 59.7 °F 54.2 °F 29.81 in West 4.0 mph 4.0 mph 82% 0.00 in
03:59 59.7 °F 54.2 °F 29.81 in West 3.0 mph 4.0 mph 82% 0.00 in
04:04 59.8 °F 54.3 °F 29.81 in West 1.0 mph 5.0 mph 82% 0.00 in
04:09 59.9 °F 54.4 °F 29.81 in WNW 2.0 mph 7.0 mph 82% 0.00 in
04:14 60.0 °F 54.5 °F 29.81 in WNW 2.0 mph 7.0 mph 82% 0.00 in
04:19 60.2 °F 54.3 °F 29.81 in WNW 2.0 mph 8.0 mph 81% 0.00 in
04:24 60.5 °F 54.6 °F 29.81 in WNW 4.0 mph 8.0 mph 81% 0.00 in
04:29 60.6 °F 54.7 °F 29.81 in West 3.0 mph 8.0 mph 81% 0.00 in
04:34 60.7 °F 54.5 °F 29.81 in WNW 1.0 mph 5.0 mph 80% 0.00 in
04:39 60.7 °F 54.5 °F 29.81 in WNW 2.0 mph 5.0 mph 80% 0.00 in
04:44 60.6 °F 54.4 °F 29.81 in WNW 3.0 mph 3.0 mph 80% 0.00 in
04:49 60.6 °F 54.7 °F 29.81 in West 2.0 mph 5.0 mph 81% 0.00 in
04:54 60.6 °F 54.7 °F 29.81 in WNW 4.0 mph 7.0 mph 81% 0.00 in
04:59 60.6 °F 54.7 °F 29.81 in West 4.0 mph 7.0 mph 81% 0.00 in
05:04 60.6 °F 54.7 °F 29.82 in WNW 3.0 mph 7.0 mph 81% 0.00 in
05:09 60.6 °F 54.7 °F 29.82 in WNW 3.0 mph 7.0 mph 81% 0.00 in
05:14 60.6 °F 54.7 °F 29.82 in West 4.0 mph 8.0 mph 81% 0.00 in
05:19 60.6 °F 54.7 °F 29.82 in West 4.0 mph 8.0 mph 81% 0.00 in
05:24 60.7 °F 54.8 °F 29.82 in West 3.0 mph 7.0 mph 81% 0.00 in
05:29 60.5 °F 54.6 °F 29.82 in West 3.0 mph 6.0 mph 81% 0.00 in
05:34 60.4 °F 54.5 °F 29.82 in West 2.0 mph 5.0 mph 81% 0.00 in
05:39 60.3 °F 54.4 °F 29.82 in West 3.0 mph 7.0 mph 81% 0.00 in
05:44 60.2 °F 54.3 °F 29.83 in West 3.0 mph 7.0 mph 81% 0.00 in
05:49 60.2 °F 54.3 °F 29.83 in West 6.0 mph 6.0 mph 81% 0.00 in
05:54 60.1 °F 54.2 °F 29.83 in WNW 4.0 mph 6.0 mph 81% 0.00 in
05:59 60.1 °F 54.2 °F 29.83 in NW 3.0 mph 7.0 mph 81% 0.00 in
06:04 60.1 °F 53.9 °F 29.83 in WNW 2.0 mph 8.0 mph 80% 0.00 in
06:09 60.0 °F 53.8 °F 29.83 in WNW 4.0 mph 8.0 mph 80% 0.00 in
06:14 60.0 °F 53.8 °F 29.83 in WNW 3.0 mph 7.0 mph 80% 0.00 in
06:19 59.9 °F 53.7 °F 29.84 in WNW 3.0 mph 7.0 mph 80% 0.00 in
06:24 60.0 °F 53.8 °F 29.84 in WNW 3.0 mph 7.0 mph 80% 0.00 in
06:29 59.9 °F 53.7 °F 29.84 in West 3.0 mph 7.0 mph 80% 0.00 in
06:34 59.9 °F 53.7 °F 29.84 in WNW 2.0 mph 5.0 mph 80% 0.00 in
06:39 59.9 °F 53.7 °F 29.84 in WNW 3.0 mph 7.0 mph 80% 0.00 in
06:44 59.8 °F 53.3 °F 29.84 in WNW 3.0 mph 7.0 mph 79% 0.00 in
06:49 59.8 °F 53.6 °F 29.84 in WNW 3.0 mph 6.0 mph 80% 0.00 in
06:54 59.7 °F 53.5 °F 29.84 in WNW 3.0 mph 6.0 mph 80% 0.00 in
06:59 59.7 °F 53.5 °F 29.84 in West 1.0 mph 5.0 mph 80% 0.00 in
07:04 59.7 °F 53.5 °F 29.85 in WNW 3.0 mph 4.0 mph 80% 0.00 in
07:09 59.8 °F 53.6 °F 29.85 in WNW 5.0 mph 8.0 mph 80% 0.00 in
07:14 60.0 °F 53.8 °F 29.85 in WNW 3.0 mph 8.0 mph 80% 0.00 in
07:19 60.2 °F 53.7 °F 29.85 in West 3.0 mph 8.0 mph 79% 0.00 in
07:24 60.4 °F 53.9 °F 29.85 in West 3.0 mph 7.0 mph 79% 0.00 in
07:29 60.6 °F 54.0 °F 29.85 in WNW 2.0 mph 7.0 mph 79% 0.00 in
07:34 60.9 °F 54.0 °F 29.85 in NW 3.0 mph 6.0 mph 78% 0.00 in
07:39 61.1 °F 54.2 °F 29.85 in WNW 4.0 mph 10.0 mph 78% 0.00 in
07:44 61.3 °F 54.4 °F 29.85 in WNW 5.0 mph 10.0 mph 78% 0.00 in
07:49 61.5 °F 54.6 °F 29.85 in West 4.0 mph 9.0 mph 78% 0.00 in
07:54 61.7 °F 54.4 °F 29.85 in WNW 4.0 mph 8.0 mph 77% 0.00 in
07:59 62.0 °F 54.3 °F 29.85 in West 4.0 mph 9.0 mph 76% 0.00 in
08:04 62.3 °F 54.6 °F 29.85 in West 4.0 mph 7.0 mph 76% 0.00 in
08:09 62.6 °F 54.9 °F 29.86 in West 4.0 mph 6.0 mph 76% 0.00 in
08:14 63.0 °F 54.6 °F 29.86 in WNW 2.0 mph 8.0 mph 74% 0.00 in
08:19 63.4 °F 55.0 °F 29.86 in WNW 4.0 mph 9.0 mph 74% 0.00 in
08:24 63.8 °F 55.0 °F 29.86 in West 3.0 mph 9.0 mph 73% 0.00 in
08:29 64.2 °F 55.0 °F 29.86 in WNW 5.0 mph 8.0 mph 72% 0.00 in
08:34 64.3 °F 54.7 °F 29.86 in WNW 4.0 mph 9.0 mph 71% 0.00 in
08:39 64.8 °F 55.6 °F 29.86 in NW 4.0 mph 7.0 mph 72% 0.00 in
08:44 65.3 °F 55.3 °F 29.86 in NW 7.0 mph 7.0 mph 70% 0.00 in
08:49 65.4 °F 55.4 °F 29.86 in WNW 4.0 mph 8.0 mph 70% 0.00 in
08:54 65.8 °F 55.3 °F 29.86 in WNW 4.0 mph 8.0 mph 69% 0.00 in
08:59 65.9 °F 55.0 °F 29.86 in WNW 4.0 mph 8.0 mph 68% 0.00 in
09:04 66.0 °F 54.7 °F 29.86 in WNW 5.0 mph 8.0 mph 67% 0.00 in
09:09 66.5 °F 54.8 °F 29.86 in WNW 5.0 mph 8.0 mph 66% 0.00 in
09:14 66.5 °F 54.8 °F 29.87 in WNW 7.0 mph 11.0 mph 66% 0.00 in
09:19 66.8 °F 54.7 °F 29.87 in NW 5.0 mph 9.0 mph 65% 0.00 in
09:24 66.8 °F 54.2 °F 29.86 in WNW 5.0 mph 10.0 mph 64% 0.00 in
09:29 67.0 °F 54.4 °F 29.86 in WNW 3.0 mph 8.0 mph 64% 0.00 in
09:34 67.7 °F 54.6 °F 29.86 in WNW 2.0 mph 6.0 mph 63% 0.00 in
09:39 67.8 °F 54.3 °F 29.86 in West 7.0 mph 10.0 mph 62% 0.00 in
09:44 68.1 °F 54.6 °F 29.86 in WNW 3.0 mph 8.0 mph 62% 0.00 in
09:49 68.5 °F 54.1 °F 29.86 in WSW 3.0 mph 9.0 mph 60% 0.00 in
09:54 68.6 °F 53.7 °F 29.86 in West 5.0 mph 9.0 mph 59% 0.00 in
09:59 69.0 °F 53.6 °F 29.86 in West 5.0 mph 12.0 mph 58% 0.00 in
10:04 68.8 °F 53.9 °F 29.86 in West 5.0 mph 12.0 mph 59% 0.00 in
10:09 69.1 °F 54.2 °F 29.86 in West 5.0 mph 11.0 mph 59% 0.00 in
10:14 69.3 °F 53.9 °F 29.87 in West 5.0 mph 11.0 mph 58% 0.00 in
10:19 69.5 °F 53.1 °F 29.87 in West 5.0 mph 11.0 mph 56% 0.00 in
10:24 69.5 °F 53.6 °F 29.87 in West 6.0 mph 10.0 mph 57% 0.00 in
10:29 69.5 °F 52.6 °F 29.87 in SW 5.0 mph 12.0 mph 55% 0.00 in
10:34 70.2 °F 53.8 °F 29.87 in WNW 13.0 mph 14.0 mph 56% 0.00 in
10:39 70.1 °F 54.2 °F 29.87 in West 8.0 mph 12.0 mph 57% 0.00 in
10:44 70.1 °F 53.7 °F 29.87 in SSW 6.0 mph 15.0 mph 56% 0.00 in
10:49 70.4 °F 53.5 °F 29.86 in West 5.0 mph 9.0 mph 55% 0.00 in
10:54 70.6 °F 55.1 °F 29.86 in West 5.0 mph 11.0 mph 58% 0.00 in
10:59 70.7 °F 55.2 °F 29.86 in West 5.0 mph 12.0 mph 58% 0.00 in
11:04 70.9 °F 54.9 °F 29.86 in WSW 5.0 mph 12.0 mph 57% 0.00 in
11:09 70.8 °F 55.8 °F 29.86 in West 8.0 mph 11.0 mph 59% 0.00 in
11:14 71.0 °F 55.5 °F 29.86 in WSW 12.0 mph 15.0 mph 58% 0.00 in
11:19 71.0 °F 55.9 °F 29.86 in West 6.0 mph 13.0 mph 59% 0.00 in
11:24 71.5 °F 56.9 °F 29.86 in WSW 7.0 mph 14.0 mph 60% 0.00 in
11:29 71.8 °F 56.2 °F 29.86 in WSW 7.0 mph 15.0 mph 58% 0.00 in
11:34 72.3 °F 56.2 °F 29.86 in WSW 6.0 mph 16.0 mph 57% 0.00 in
11:39 72.3 °F 55.7 °F 29.86 in WSW 5.0 mph 12.0 mph 56% 0.00 in
11:44 72.0 °F 55.4 °F 29.86 in SSW 8.0 mph 18.0 mph 56% 0.00 in
11:49 71.3 °F 56.2 °F 29.86 in WSW 7.0 mph 17.0 mph 59% 0.00 in
11:54 71.7 °F 55.7 °F 29.86 in WSW 8.0 mph 17.0 mph 57% 0.00 in
11:59 72.5 °F 56.4 °F 29.86 in WSW 3.0 mph 12.0 mph 57% 0.00 in
12:04 72.4 °F 54.8 °F 29.87 in SW 10.0 mph 16.0 mph 54% 0.00 in
12:09 72.2 °F 54.6 °F 29.87 in SSW 6.0 mph 17.0 mph 54% 0.00 in
12:14 72.4 °F 55.3 °F 29.86 in West 4.0 mph 14.0 mph 55% 0.00 in
12:19 72.6 °F 56.0 °F 29.86 in SW 6.0 mph 15.0 mph 56% 0.00 in
12:24 72.6 °F 56.0 °F 29.87 in WSW 8.0 mph 16.0 mph 56% 0.00 in
12:29 73.1 °F 57.4 °F 29.86 in WSW 7.0 mph 16.0 mph 58% 0.00 in
12:34 73.2 °F 56.1 °F 29.86 in WSW 7.0 mph 16.0 mph 55% 0.00 in
12:39 73.2 °F 54.5 °F 29.86 in WSW 7.0 mph 18.0 mph 52% 0.00 in
12:44 72.8 °F 56.2 °F 29.86 in WSW 7.0 mph 18.0 mph 56% 0.00 in
12:49 73.5 °F 56.3 °F 29.86 in SW 9.0 mph 14.0 mph 55% 0.00 in
12:54 72.2 °F 54.6 °F 29.86 in WSW 9.0 mph 15.0 mph 54% 0.00 in
12:59 72.7 °F 56.6 °F 29.86 in WSW 8.0 mph 15.0 mph 57% 0.00 in
13:04 72.2 °F 54.6 °F 29.86 in SW 5.0 mph 18.0 mph 54% 0.00 in
13:09 71.3 °F 54.8 °F 29.86 in SW 6.0 mph 14.0 mph 56% 0.00 in
13:14 71.7 °F 55.2 °F 29.86 in SSW 5.0 mph 15.0 mph 56% 0.00 in
13:19 72.4 °F 55.8 °F 29.86 in SSW 8.0 mph 15.0 mph 56% 0.00 in
13:24 73.0 °F 55.9 °F 29.86 in WSW 8.0 mph 16.0 mph 55% 0.00 in
13:29 73.0 °F 55.9 °F 29.86 in SW 8.0 mph 18.0 mph 55% 0.00 in
13:34 72.9 °F 55.8 °F 29.85 in WSW 8.0 mph 18.0 mph 55% 0.00 in
13:39 73.0 °F 55.9 °F 29.86 in WSW 9.0 mph 15.0 mph 55% 0.00 in
13:44 73.3 °F 56.2 °F 29.85 in SW 8.0 mph 15.0 mph 55% 0.00 in
13:49 73.9 °F 56.7 °F 29.85 in WSW 7.0 mph 15.0 mph 55% 0.00 in
13:54 73.9 °F 56.7 °F 29.85 in SW 4.0 mph 15.0 mph 55% 0.00 in
13:59 74.0 °F 56.3 °F 29.86 in SW 5.0 mph 17.0 mph 54% 0.00 in
14:04 73.1 °F 56.0 °F 29.86 in West 8.0 mph 18.0 mph 55% 0.00 in
14:09 73.2 °F 56.1 °F 29.86 in WSW 7.0 mph 17.0 mph 55% 0.00 in
14:14 73.2 °F 57.1 °F 29.85 in SSW 11.0 mph 19.0 mph 57% 0.00 in
14:19 73.3 °F 57.1 °F 29.86 in SSW 7.0 mph 16.0 mph 57% 0.00 in
14:24 73.3 °F 56.7 °F 29.85 in West 10.0 mph 22.0 mph 56% 0.00 in
14:29 73.2 °F 55.6 °F 29.85 in SW 9.0 mph 22.0 mph 54% 0.00 in
14:34 73.1 °F 56.0 °F 29.85 in WSW 10.0 mph 21.0 mph 55% 0.00 in
14:39 73.7 °F 55.5 °F 29.86 in WSW 9.0 mph 17.0 mph 53% 0.00 in
14:49 74.1 °F 57.4 °F 29.85 in WSW 8.0 mph 15.0 mph 56% 0.00 in
14:54 73.6 °F 56.9 °F 29.85 in WSW 8.0 mph 19.0 mph 56% 0.00 in
14:59 73.5 °F 56.3 °F 29.85 in SW 10.0 mph 17.0 mph 55% 0.00 in
15:04 73.7 °F 57.0 °F 29.85 in WSW 8.0 mph 17.0 mph 56% 0.00 in
15:09 73.7 °F 57.5 °F 29.85 in WSW 8.0 mph 17.0 mph 57% 0.00 in
15:19 74.0 °F 57.3 °F 29.85 in WSW 9.0 mph 14.0 mph 56% 0.00 in
15:24 74.0 °F 58.3 °F 29.85 in NW 6.0 mph 15.0 mph 58% 0.00 in
15:29 73.8 °F 57.1 °F 29.85 in SW 9.0 mph 18.0 mph 56% 0.00 in
15:34 73.7 °F 57.0 °F 29.85 in West 7.0 mph 20.0 mph 56% 0.00 in
15:39 73.7 °F 58.5 °F 29.85 in SW 9.0 mph 21.0 mph 59% 0.00 in
15:44 74.0 °F 57.8 °F 29.86 in SW 9.0 mph 21.0 mph 57% 0.00 in
15:49 73.4 °F 57.7 °F 29.85 in WSW 9.0 mph 20.0 mph 58% 0.00 in
15:54 73.5 °F 57.3 °F 29.85 in WSW 14.0 mph 19.0 mph 57% 0.00 in
15:59 73.2 °F 57.5 °F 29.84 in South 9.0 mph 20.0 mph 58% 0.00 in
16:04 72.8 °F 57.2 °F 29.84 in WSW 6.0 mph 22.0 mph 58% 0.00 in
16:09 72.7 °F 57.5 °F 29.85 in WSW 9.0 mph 22.0 mph 59% 0.00 in
16:14 71.9 °F 57.7 °F 29.84 in SW 8.0 mph 16.0 mph 61% 0.00 in
16:19 71.1 °F 57.4 °F 29.85 in SSW 16.0 mph 16.0 mph 62% 0.00 in
16:24 70.6 °F 57.4 °F 29.85 in West 10.0 mph 18.0 mph 63% 0.00 in
16:29 70.3 °F 57.5 °F 29.86 in West 10.0 mph 20.0 mph 64% 0.00 in
16:34 70.2 °F 57.4 °F 29.85 in West 4.0 mph 14.0 mph 64% 0.00 in
16:39 70.1 °F 57.4 °F 29.86 in WSW 8.0 mph 15.0 mph 64% 0.00 in
16:44 70.1 °F 57.8 °F 29.86 in WSW 8.0 mph 17.0 mph 65% 0.00 in
16:49 69.5 °F 58.5 °F 29.86 in WSW 8.0 mph 14.0 mph 68% 0.01 in
16:54 68.8 °F 58.6 °F 29.85 in SW 4.0 mph 16.0 mph 70% 0.01 in
16:59 69.3 °F 59.1 °F 29.86 in WSW 10.0 mph 19.0 mph 70% 0.01 in
17:04 69.2 °F 57.8 °F 29.86 in West 8.0 mph 20.0 mph 67% 0.01 in
17:09 69.5 °F 59.3 °F 29.86 in WSW 9.0 mph 20.0 mph 70% 0.01 in
17:14 69.7 °F 59.1 °F 29.86 in WSW 7.0 mph 17.0 mph 69% 0.01 in
17:19 69.9 °F 58.9 °F 29.85 in WSW 6.0 mph 12.0 mph 68% 0.01 in
17:24 70.5 °F 58.6 °F 29.85 in WSW 6.0 mph 13.0 mph 66% 0.01 in
17:29 71.1 °F 57.9 °F 29.85 in WSW 6.0 mph 10.0 mph 63% 0.01 in
17:34 71.0 °F 57.3 °F 29.86 in SSW 5.0 mph 10.0 mph 62% 0.01 in
17:39 70.7 °F 57.5 °F 29.86 in WSW 5.0 mph 12.0 mph 63% 0.01 in
17:44 70.5 °F 55.0 °F 29.86 in West 5.0 mph 12.0 mph 58% 0.01 in
17:49 70.9 °F 55.4 °F 29.86 in West 3.0 mph 12.0 mph 58% 0.00 in
17:54 71.2 °F 54.2 °F 29.86 in WSW 5.0 mph 15.0 mph 55% 0.00 in
17:59 71.1 °F 53.6 °F 29.86 in West 7.0 mph 14.0 mph 54% 0.00 in
18:04 71.1 °F 53.6 °F 29.86 in WNW 5.0 mph 14.0 mph 54% 0.00 in
18:09 71.6 °F 54.1 °F 29.86 in West 8.0 mph 14.0 mph 54% 0.00 in
18:14 71.7 °F 54.7 °F 29.86 in WNW 6.0 mph 14.0 mph 55% 0.00 in
18:19 71.4 °F 54.4 °F 29.86 in WNW 6.0 mph 12.0 mph 55% 0.00 in
18:24 71.2 °F 54.7 °F 29.87 in WNW 6.0 mph 12.0 mph 56% 0.00 in
18:29 71.3 °F 54.8 °F 29.87 in WNW 6.0 mph 10.0 mph 56% 0.00 in
18:34 71.0 °F 54.5 °F 29.87 in WNW 6.0 mph 12.0 mph 56% 0.00 in
18:39 70.8 °F 54.3 °F 29.86 in West 6.0 mph 16.0 mph 56% 0.00 in
18:44 71.2 °F 54.7 °F 29.86 in WNW 6.0 mph 16.0 mph 56% 0.00 in
18:49 71.2 °F 55.2 °F 29.87 in West 6.0 mph 11.0 mph 57% 0.00 in
18:54 70.8 °F 54.8 °F 29.87 in WSW 5.0 mph 15.0 mph 57% 0.00 in
18:59 70.6 °F 55.1 °F 29.87 in NW 5.0 mph 12.0 mph 58% 0.00 in
19:04 70.2 °F 54.7 °F 29.87 in WNW 6.0 mph 13.0 mph 58% 0.00 in
19:09 69.8 °F 54.4 °F 29.87 in WNW 4.0 mph 11.0 mph 58% 0.00 in
19:14 69.6 °F 54.6 °F 29.87 in West 6.0 mph 11.0 mph 59% 0.00 in
19:19 69.4 °F 54.9 °F 29.87 in West 5.0 mph 10.0 mph 60% 0.00 in
19:24 69.3 °F 54.4 °F 29.87 in WNW 4.0 mph 9.0 mph 59% 0.00 in
19:29 69.3 °F 54.4 °F 29.88 in WNW 4.0 mph 9.0 mph 59% 0.00 in
19:34 69.2 °F 54.3 °F 29.88 in WNW 4.0 mph 10.0 mph 59% 0.00 in
19:39 68.9 °F 53.0 °F 29.88 in West 2.0 mph 15.0 mph 57% 0.00 in
19:44 68.7 °F 52.4 °F 29.88 in WSW 9.0 mph 10.0 mph 56% 0.00 in
19:49 68.5 °F 51.7 °F 29.88 in NW 3.0 mph 11.0 mph 55% 0.00 in
19:54 68.2 °F 51.4 °F 29.88 in NW 5.0 mph 11.0 mph 55% 0.00 in
19:59 68.0 °F 51.7 °F 29.88 in NNE 2.0 mph 10.0 mph 56% 0.00 in
20:04 67.6 °F 51.8 °F 29.89 in NW 2.0 mph 7.0 mph 57% 0.00 in
20:09 67.4 °F 52.1 °F 29.89 in WNW 1.0 mph 8.0 mph 58% 0.00 in
20:14 67.1 °F 52.3 °F 29.89 in NW 3.0 mph 8.0 mph 59% 0.00 in
20:19 66.7 °F 52.4 °F 29.89 in NNW 2.0 mph 8.0 mph 60% 0.00 in
20:24 66.4 °F 52.1 °F 29.89 in NW 3.0 mph 8.0 mph 60% 0.00 in
20:29 66.3 °F 52.0 °F 29.89 in NW 4.0 mph 9.0 mph 60% 0.00 in
20:34 66.2 °F 52.3 °F 29.89 in NW 3.0 mph 9.0 mph 61% 0.00 in
20:39 65.8 °F 52.0 °F 29.89 in Calm   6.0 mph 61% 0.00 in
20:44 65.7 °F 51.9 °F 29.89 in NNW 4.0 mph 8.0 mph 61% 0.00 in
20:49 65.6 °F 51.8 °F 29.90 in NW 3.0 mph 8.0 mph 61% 0.00 in
20:54 65.4 °F 52.0 °F 29.90 in NW 3.0 mph 8.0 mph 62% 0.00 in
20:59 65.1 °F 51.8 °F 29.90 in NW 4.0 mph 6.0 mph 62% 0.00 in
21:04 64.9 °F 52.0 °F 29.90 in WNW 4.0 mph 6.0 mph 63% 0.00 in
21:09 64.9 °F 51.6 °F 29.90 in Calm   5.0 mph 62% 0.00 in
21:14 64.7 °F 51.8 °F 29.91 in West 2.0 mph 6.0 mph 63% 0.00 in
21:19 64.4 °F 51.5 °F 29.91 in WNW 2.0 mph 6.0 mph 63% 0.00 in
21:24 64.2 °F 51.3 °F 29.91 in WNW 1.0 mph 5.0 mph 63% 0.00 in
21:29 63.9 °F 51.1 °F 29.91 in NW 1.0 mph 6.0 mph 63% 0.00 in
21:34 63.9 °F 51.1 °F 29.91 in NW 1.0 mph 5.0 mph 63% 0.00 in
21:39 63.9 °F 51.1 °F 29.91 in WNW 2.0 mph 7.0 mph 63% 0.00 in
21:44 63.8 °F 51.0 °F 29.91 in North 5.0 mph 5.0 mph 63% 0.00 in
21:49 63.6 °F 51.2 °F 29.91 in NNW 1.0 mph 7.0 mph 64% 0.00 in
21:54 63.4 °F 51.0 °F 29.91 in NW 2.0 mph 7.0 mph 64% 0.00 in
21:59 63.3 °F 50.9 °F 29.91 in Calm   6.0 mph 64% 0.00 in
22:04 63.1 °F 51.1 °F 29.92 in Calm   4.0 mph 65% 0.00 in
22:09 62.9 °F 51.0 °F 29.92 in West 4.0 mph 4.0 mph 65% 0.00 in
22:14 62.8 °F 50.9 °F 29.92 in NW 1.0 mph 5.0 mph 65% 0.00 in
22:19 62.6 °F 51.1 °F 29.92 in NNW 1.0 mph 5.0 mph 66% 0.00 in
22:24 62.5 °F 51.0 °F 29.92 in NNW 1.0 mph 4.0 mph 66% 0.00 in
22:29 62.2 °F 50.7 °F 29.92 in NW 1.0 mph 5.0 mph 66% 0.00 in
22:34 62.0 °F 50.5 °F 29.92 in NW 1.0 mph 5.0 mph 66% 0.00 in
22:39 61.9 °F 50.8 °F 29.92 in Calm   4.0 mph 67% 0.00 in
22:44 61.8 °F 50.7 °F 29.92 in NW 1.0 mph 4.0 mph 67% 0.00 in
22:49 61.7 °F 50.6 °F 29.92 in NW 2.0 mph 4.0 mph 67% 0.00 in
22:54 61.4 °F 50.3 °F 29.92 in Calm   3.0 mph 67% 0.00 in
22:59 61.3 °F 50.6 °F 29.92 in WNW 1.0 mph 4.0 mph 68% 0.00 in
23:04 61.2 °F 50.6 °F 29.92 in NW 1.0 mph 3.0 mph 68% 0.00 in
23:09 60.9 °F 50.3 °F 29.93 in Calm   3.0 mph 68% 0.00 in
23:14 60.7 °F 50.5 °F 29.93 in Calm   3.0 mph 69% 0.00 in
23:19 60.4 °F 50.2 °F 29.93 in Calm     69% 0.00 in
23:29 60.2 °F 50.4 °F 29.93 in Calm   2.0 mph 70% 0.00 in
23:34 60.0 °F 50.6 °F 29.93 in Calm   2.0 mph 71% 0.00 in
23:39 59.7 °F 50.3 °F 29.93 in Calm     71% 0.00 in
23:44 59.5 °F 50.5 °F 29.93 in Calm   3.0 mph 72% 0.00 in
23:49 59.5 °F 50.5 °F 29.93 in Calm   1.0 mph 72% 0.00 in
23:54 59.4 °F 50.4 °F 29.93 in Calm     72% 0.00 in
23:59 58.9 °F 50.3 °F 29.93 in Calm     73% 0.00 in
Buffalo, New York, USA
Compliments of Weather Underground - 2.5 mb